• Join FlightAware (Why Join?)
  • Login
  • US Flag 
09:29AM EDT


 

Airport Tracker/Info


-or-


 

Live Flight TrackerFlight Track Log ✈ AAL2460 ✈ 24-Apr-2013 ✈ KLAX - KDFW

Flight Track Log - Related Links

Times and Time Zones

All times are in EDT time to prevent confusion due to time zone crossing. See the AAL2460 flight status page for this flight to view local times or setup timezone preferences in your user account.

Time Position Orientation Groundspeed Altitude Reporting Facility
EDT Latitude Longitude Course Direction KTS MPH feet Rate Location/Type
09:22PM 33.9342 -118.4358 55° Northeast 174 200 1,900  Level Los Angeles Center
09:23PM 33.9039 -118.5122 244° Southwest 248 285 4,500 3,060 Climbing Los Angeles Center
09:24PM 34.0548 -118.1952 40° Northeast  Level FlightAware Approximate
09:24PM 33.8628 -118.4642 136° Southeast 256 295 8,200  Level Los Angeles Center
09:25PM 34.1317 -118.0700 59° Northeast  Level FlightAware Approximate
09:25PM 33.9286 -118.4258 26° Northeast 289 333 11,400  Level Los Angeles Center
09:26PM 34.1987 -117.9359 59° Northeast  Level FlightAware Approximate
09:26PM 33.9878 -118.3506 47° Northeast 328 377 13,100  Level Los Angeles Center
09:27PM 34.2678 -117.8156 40° Northeast  Level FlightAware Approximate
09:27PM 34.0392 -118.2414 60° Northeast 369 425 15,600  Level Los Angeles Center
09:28PM 34.3378 -117.6881 55° Northeast  Level FlightAware Approximate
09:29PM 34.1136 -118.1051 54° Northeast  Level FlightAware Approximate
09:29PM 34.1683 -118.0186 54° Northeast 408 470 20,700  Level Los Angeles Center
09:31PM 34.2347 -117.8989 56° Northeast 425 489 22,800 1,860 Climbing Los Angeles Center
09:32PM 34.3050 -117.7742 56° Northeast 445 512 24,600 1,740 Climbing Los Angeles Center
09:33PM 34.3786 -117.6431 56° Northeast 465 535 26,400 1,680 Climbing Los Angeles Center
09:34PM 34.4458 -117.4944 61° Northeast 481 554 28,100 1,920 Climbing Los Angeles Center
09:35PM 34.4689 -117.3386 80° East 478 550 30,400 2,340 Climbing Los Angeles Center
09:36PM 34.4900 -117.1528 82° East 468 539 33,000 2,220 Climbing Los Angeles Center
09:37PM 34.5081 -116.9994 82° East 463 533 35,000 1,680 Climbing Los Angeles Center
09:38PM 34.5250 -116.8492 82° East 455 524 36,500 1,320 Climbing Los Angeles Center
09:39PM 34.5411 -116.6967 83° East 458 527 37,800 960 Climbing Los Angeles Center
09:40PM 34.5581 -116.5417 82° East 464 534 38,500 540 Climbing Los Angeles Center
09:41PM 34.5758 -116.3822 82° East 475 547 39,000 240 Climbing Los Angeles Center
09:42PM 34.5919 -116.2206 83° East 484 557 39,000  Level Los Angeles Center
09:43PM 34.6136 -116.0225 82° East 494 568 39,000  Level Los Angeles Center
09:44PM 34.6303 -115.8583 83° East 492 566 39,000  Level Los Angeles Center
09:45PM 34.6467 -115.6931 83° East 495 570 39,000  Level Los Angeles Center
09:46PM 34.6639 -115.5319 83° East 498 573 39,000  Level Los Angeles Center
09:47PM 34.6836 -115.3383 83° East 488 562 39,000  Level Los Angeles Center
09:48PM 34.6989 -115.1758 83° East 486 559 39,000  Level Los Angeles Center
09:49PM 34.7150 -115.0147 83° East 485 558 39,000  Level Los Angeles Center
09:50PM 34.7303 -114.8536 83° East 483 556 39,000  Level Los Angeles Center
09:51PM 34.7450 -114.6903 84° East 486 559 39,000  Level Los Angeles Center
09:52PM 34.7597 -114.5272 84° East 487 560 39,000  Level Los Angeles Center
09:53PM 34.7733 -114.3653 84° East 484 557 39,000  Level Los Angeles Center
09:54PM 34.7864 -114.1703 85° East 483 556 39,000  Level Los Angeles Center
09:55PM 34.7942 -114.0086 87° East 480 552 39,000  Level Los Angeles Center
09:56PM 34.7975 -113.8683 88° East 480 552 39,000  Level Los Angeles Center
09:57PM 34.7992 -113.8031 88° East 482 555 39,000  Level Albuquerque Center
09:58PM 34.8008 -113.6400 89° East 483 556 39,000  Level Albuquerque Center
09:59PM 34.8031 -113.4789 89° East 484 557 39,000  Level Albuquerque Center
10:00PM 34.8039 -113.3150 90° East 487 560 39,000  Level Albuquerque Center
10:01PM 34.8058 -113.1197 89° East 488 562 39,000  Level Albuquerque Center
10:02PM 34.8075 -112.9569 89° East 488 562 39,000  Level Albuquerque Center
10:03PM 34.8089 -112.7944 89° East 487 560 39,000  Level Albuquerque Center
10:04PM 34.8100 -112.6306 89° East 490 564 39,000  Level Albuquerque Center
10:05PM 34.8108 -112.4658 90° East 492 566 39,000  Level Albuquerque Center
10:06PM 34.8119 -112.3011 89° East 492 566 39,000  Level Albuquerque Center
10:07PM 34.8128 -112.1019 90° East 494 568 39,000  Level Albuquerque Center
10:08PM 34.8131 -111.9364 90° East 495 570 39,000  Level Albuquerque Center
10:09PM 34.8128 -111.7686 90° East 498 573 39,000  Level Albuquerque Center
10:10PM 34.8142 -111.5936 89° East 500 575 39,000  Level Albuquerque Center
10:11PM 34.8144 -111.4236 90° East 501 577 39,000  Level Albuquerque Center
10:12PM 34.8133 -111.2544 90° East 500 575 39,000  Level Albuquerque Center
10:13PM 34.8133 -111.0833 90° East 503 579 39,000  Level Albuquerque Center
10:14PM 34.8103 -110.9125 91° East 505 581 39,000  Level Albuquerque Center
10:15PM 34.8100 -110.7361 90° East 506 582 39,000  Level Albuquerque Center
10:16PM 34.8083 -110.5456 91° East 506 582 39,000  Level Albuquerque Center
10:17PM 34.8072 -110.3817 90° East 507 583 39,000  Level Albuquerque Center
10:18PM 34.8042 -110.1869 91° East 512 589 39,000  Level Albuquerque Center
10:19PM 34.8014 -110.0183 91° East 519 597 39,000  Level Albuquerque Center
10:20PM 34.7997 -109.8503 91° East 520 598 39,000  Level Albuquerque Center
10:21PM 34.7969 -109.6536 91° East 521 600 39,000  Level Albuquerque Center
10:22PM 34.7961 -109.4844 90° East 523 602 39,000  Level Albuquerque Center
10:23PM 34.7931 -109.2886 91° East 521 600 39,000  Level Albuquerque Center
10:24PM 34.7906 -109.1200 91° East 522 601 39,000  Level Albuquerque Center
10:25PM 34.7881 -108.9519 91° East 522 601 39,000  Level Albuquerque Center
10:26PM 34.7844 -108.7561 91° East 521 600 39,000  Level Albuquerque Center
10:27PM 34.7800 -108.5878 92° East 522 601 39,000  Level Albuquerque Center
10:28PM 34.7764 -108.4119 91° East 522 601 39,000  Level Albuquerque Center
10:29PM 34.7717 -108.2358 92° East 523 602 39,000  Level Albuquerque Center
10:30PM 34.7672 -108.0589 92° East 525 604 39,000  Level Albuquerque Center
10:31PM 34.7614 -107.8819 92° East 525 604 39,000  Level Albuquerque Center
10:32PM 34.7567 -107.7028 92° East 530 610 39,000  Level Albuquerque Center
10:33PM 34.7497 -107.4881 92° East 532 612 39,000  Level Albuquerque Center
10:34PM 34.7436 -107.3044 92° East 542 624 39,000  Level Albuquerque Center
10:35PM 34.7364 -107.1231 93° East 543 625 39,000  Level Albuquerque Center
10:36PM 34.7292 -106.9422 93° East 544 626 39,000  Level Albuquerque Center
10:37PM 34.7208 -106.7569 93° East 554 638 39,000  Level Albuquerque Center
10:38PM 34.7133 -106.5756 93° East 548 631 39,000  Level Albuquerque Center
10:39PM 34.7050 -106.3956 93° East 541 623 39,000  Level Albuquerque Center
10:40PM 34.6936 -106.1728 93° East 540 621 39,000  Level Albuquerque Center
10:41PM 34.6867 -105.9911 93° East 537 618 39,000  Level Albuquerque Center
10:43PM 34.6761 -105.8106 94° East 534 615 39,000  Level Albuquerque Center
10:44PM 34.6664 -105.6303 94° East 533 613 39,000  Level Albuquerque Center
10:45PM 34.6572 -105.4494 93° East 533 613 39,000  Level Albuquerque Center
10:46PM 34.6486 -105.2694 93° East 532 612 39,000  Level Albuquerque Center
10:47PM 34.6383 -105.0889 94° East 532 612 39,000  Level Albuquerque Center
10:48PM 34.6292 -104.9097 94° East 531 611 39,000  Level Albuquerque Center
10:49PM 34.6186 -104.7286 94° East 534 615 39,000  Level Albuquerque Center
10:50PM 34.6083 -104.5489 94° East 533 613 39,000  Level Albuquerque Center
10:51PM 34.5972 -104.3694 94° East 533 613 39,000  Level Albuquerque Center
10:52PM 34.5867 -104.1892 94° East 535 616 39,000  Level Albuquerque Center
10:53PM 34.5728 -103.9800 95° East 533 613 39,000  Level Albuquerque Center
10:54PM 34.5614 -103.7986 94° East 537 618 39,000  Level Albuquerque Center
10:55PM 34.5497 -103.6169 94° East 538 619 39,000  Level Albuquerque Center
10:56PM 34.5375 -103.4358 95° East 537 618 39,000  Level Albuquerque Center
10:57PM 34.5244 -103.2536 95° East 539 620 39,000  Level Albuquerque Center
10:58PM 34.5114 -103.0714 95° East 539 620 39,000  Level Albuquerque Center
10:59PM 34.4986 -102.8881 95° East 542 624 39,000  Level Albuquerque Center
11:00PM 34.4842 -102.7147 96° East 541 623 39,000  Level Albuquerque Center
11:01PM 34.4633 -102.5336 98° East 544 626 39,000  Level Albuquerque Center
11:02PM 34.4397 -102.3172 97° East 545 627 39,000  Level Albuquerque Center
11:03PM 34.4206 -102.1364 97° East 545 627 39,000  Level Albuquerque Center
11:04PM 34.4017 -101.9556 97° East 546 628 39,000  Level Albuquerque Center
11:05PM 34.3806 -101.7747 98° East 546 628 39,000  Level Albuquerque Center
11:06PM 34.3617 -101.5942 97° East 546 628 39,000  Level Albuquerque Center
11:07PM 34.3419 -101.4147 98° East 543 625 39,000  Level Albuquerque Center
11:08PM 34.3222 -101.2367 98° East 540 621 39,000  Level Albuquerque Center
11:09PM 34.3025 -101.0583 98° East 540 621 39,000  Level Albuquerque Center
11:10PM 34.2814 -100.8856 98° East 531 611 39,000  Level Albuquerque Center
11:11PM 34.2581 -100.6725 97° East 528 608 39,000  Level Fort Worth Center
11:12PM 34.2353 -100.4983 99° East 523 602 39,000 -480 Level Fort Worth Center
11:13PM 34.2483 -100.3103 85° East 508 585 38,100 -1,020 Descending Fort Worth Center
11:14PM 34.2792 -100.1406 78° East 508 585 37,000 -600 Descending Fort Worth Center
11:15PM 34.3097 -99.9756 77° East 515 593 37,000  Level Fort Worth Center
11:16PM 34.3425 -99.7981 77° East 515 593 37,000 -360 Level Fort Worth Center
11:17PM 34.3456 -99.6344 89° East 504 580 36,300 -1,200 Descending Fort Worth Center
11:18PM 34.2897 -99.4747 113° Southeast 492 566 34,700 -1,620 Descending Fort Worth Center
11:19PM 34.2233 -99.3225 118° Southeast 497 572 33,200 -900 Descending Fort Worth Center
11:20PM 34.1567 -99.1753 119° Southeast 497 572 33,000 -120 Descending Fort Worth Center
11:21PM 34.0958 -99.0486 120° Southeast 497 572 33,000  Level Fort Worth Center
11:22PM 34.0228 -98.8769 117° Southeast 497 572 33,000 -120 Level Fort Worth Center
11:23PM 33.9617 -98.7433 119° Southeast 504 580 32,800 -1,320 Descending Fort Worth Center
11:24PM 33.8842 -98.5794 120° Southeast 509 586 30,400 -2,700 Descending Fort Worth Center
11:25PM 33.8164 -98.4286 118° Southeast 509 586 27,500 -3,000 Descending Fort Worth Center
11:26PM 33.7467 -98.2753 119° Southeast 509 586 24,400 -2,700 Descending Fort Worth Center
11:27PM 33.6786 -98.1297 119° Southeast 504 580 22,200 -2,400 Descending Fort Worth Center
11:28PM 33.6147 -97.9947 120° Southeast 491 565 19,700 -2,220 Descending Fort Worth Center
11:29PM 33.5528 -97.8672 120° Southeast 447 514 17,800 -1,860 Descending Fort Worth Center
11:30PM 33.4925 -97.7722 127° Southeast 415 478 16,000 -2,100 Descending Fort Worth Center
11:31PM 33.4133 -97.6772 135° Southeast 376 433 13,600 -2,100 Descending Fort Worth Center
11:32PM 33.3447 -97.5975 136° Southeast 346 398 11,800 -1,320 Descending Fort Worth Center
11:33PM 33.2864 -97.5278 135° Southeast 335 386 11,000 -420 Descending Fort Worth Center
11:34PM 33.2175 -97.4483 136° Southeast 316 364 11,000  Level Fort Worth Center
11:35PM 33.1547 -97.3786 137° Southeast 316 364 11,000  Level Fort Worth Center
11:36PM 33.0942 -97.3044 134° Southeast 316 364 11,000  Level Fort Worth Center
11:37PM 33.0317 -97.2325 136° Southeast 316 364 11,000  Level Fort Worth Center
11:38PM 32.9772 -97.1708 136° Southeast 293 337 11,000 -840 Level Fort Worth Center
11:39PM 32.9103 -97.1683 178° South 246 283 9,400 -1,740 Descending Fort Worth Center
11:40PM 32.8478 -97.1711 182° South 246 283 7,600 -1,800 Descending Fort Worth Center
11:41PM 32.7831 -97.1514 166° South 246 283 5,900 -1,740 Descending Fort Worth Center
11:42PM 32.7308 -97.1144 149° Southeast 219 252 4,200 -1,680 Descending Fort Worth Center
11:43PM 32.7333 -97.0667 86° East 206 237 3,000 -840 Descending Dallas / Fort Worth TRACON
11:44PM 32.7667 -97.0333 40° Northeast 174 200 2,700 -300 Descending Dallas / Fort Worth TRACON